Charlestown, IN

3:34 PM EST on February 01, 2015 (GMT -0500)
APRSWXNET Charlestown IN US | Change Station
CLOSE
Current Station
Personal Weather Station
Location: Charlestown, IN
Elevation: 485 ft
Nearby Weather Stations
Active Advisory: Special Statement

Elev 485 ft 38.42 °N, 85.69 °W | Updated 34 minutes ago

Overcast
Overcast
44 °F
Feels Like 44 °F
N
3
Wind Variable Wind from SE
Gusts 5.0 mph

Today
High -- | Low -- °F
--% Chance of Precip.
Yesterday
High -- | Low -- °F
Precip. -- in
7:48 AM 6:04 PM
Waxing Gibbous, 96% visible
Pressure 29.71 in
Visibility 5.0 miles
Clouds Overcast 1200 ft
Windchill 44 °F
Dew Point 40 °F
Humidity 86%
Rainfall 0.30 in
Snow Depth Not available.
UV 1 out of 12
Pollen .30 out of 12
Air Quality Not available.
Flu Activity Not available.
METAR KLOU 011953Z 18007KT 5SM -RA BR OVC012 07/05 A2970 RMK AO2 SLP059 P0003 T00670050

More Conditions Fewer Conditions

Pressure 29.71 in
Visibility 5.0 miles
Clouds Overcast 1200 ft
Windchill 44 °F
Dew Point 40 °F
Humidity 86%
Rainfall 0.30 in
Snow Depth Not available.
UV 1 out of 12
Pollen .30 out of 12
Air Quality Not available.
Flu Activity Not available.
METAR KLOU 011953Z 18007KT 5SM -RA BR OVC012 07/05 A2970 RMK AO2 SLP059 P0003 T00670050

More Conditions Fewer Conditions

10-Day Weather Forecast

Almanac

Astronomy

Feb. 01, 2015 Rise Set
Actual Time
Civil Twilight
Nautical Twilight
Astronomical Twilight
Moon
Length of Visible Light
Length of Day
Tomorrow will be .
, % of the Moon is Illuminated

Today's Extremes

State Highs State Lows

Community

WunderPhotos

Upload Photos

1,792,511 photos uploaded!

WunderBlogs® & News

Nearby

Air Quality

  Air Quality AQ Index Pollutant
Not available.

Snow Depth

Station Depth Elevation

Earthquake Activity

City Distance Mag. Time & Date
Minimum magnitude displayed is 2.5.

Coastal Water Temperatures

Place Temperature

Nearby Weather Stations